sensor_id;sensor_type;location;lat;lon;timestamp;temperature;humidity
72770;DHT22;60893;50.848;12.072;2022-07-29T00:11:31;24.10;32.90
72770;DHT22;60893;50.848;12.072;2022-07-29T00:26:57;23.80;33.20
72770;DHT22;60893;50.848;12.072;2022-07-29T00:42:23;23.80;33.60
72770;DHT22;60893;50.848;12.072;2022-07-29T00:57:48;23.60;33.90
72770;DHT22;60893;50.848;12.072;2022-07-29T01:13:15;23.50;34.50
72770;DHT22;60893;50.848;12.072;2022-07-29T01:29:05;23.40;34.80
72770;DHT22;60893;50.848;12.072;2022-07-29T01:44:35;23.30;35.20
72770;DHT22;60893;50.848;12.072;2022-07-29T02:00:04;23.10;36.20
72770;DHT22;60893;50.848;12.072;2022-07-29T02:15:32;23.10;36.00
72770;DHT22;60893;50.848;12.072;2022-07-29T02:31:00;23.00;36.40
72770;DHT22;60893;50.848;12.072;2022-07-29T02:46:30;22.90;36.90
72770;DHT22;60893;50.848;12.072;2022-07-29T03:01:57;22.70;37.50
72770;DHT22;60893;50.848;12.072;2022-07-29T03:17:25;22.50;38.00
72770;DHT22;60893;50.848;12.072;2022-07-29T03:32:51;22.30;38.60
72770;DHT22;60893;50.848;12.072;2022-07-29T03:48:23;22.10;39.10
72770;DHT22;60893;50.848;12.072;2022-07-29T04:03:50;22.00;39.40
72770;DHT22;60893;50.848;12.072;2022-07-29T04:19:16;21.80;40.10
72770;DHT22;60893;50.848;12.072;2022-07-29T04:34:45;21.70;40.20
72770;DHT22;60893;50.848;12.072;2022-07-29T04:50:11;21.60;41.00
72770;DHT22;60893;50.848;12.072;2022-07-29T05:05:37;21.60;41.40
72770;DHT22;60893;50.848;12.072;2022-07-29T05:21:04;21.70;41.70
72770;DHT22;60893;50.848;12.072;2022-07-29T05:36:30;21.80;41.80
72770;DHT22;60893;50.848;12.072;2022-07-29T05:51:55;21.90;41.90
72770;DHT22;60893;50.848;12.072;2022-07-29T06:07:22;22.10;42.00
72770;DHT22;60893;50.848;12.072;2022-07-29T06:22:47;22.50;42.10
72770;DHT22;60893;50.848;12.072;2022-07-29T06:38:15;22.70;41.90
72770;DHT22;60893;50.848;12.072;2022-07-29T06:53:55;22.80;41.40
72770;DHT22;60893;50.848;12.072;2022-07-29T07:09:27;22.80;41.80
72770;DHT22;60893;50.848;12.072;2022-07-29T07:25:04;22.90;41.80
72770;DHT22;60893;50.848;12.072;2022-07-29T07:40:30;23.10;41.90
72770;DHT22;60893;50.848;12.072;2022-07-29T07:55:56;23.40;41.60
72770;DHT22;60893;50.848;12.072;2022-07-29T08:11:37;23.80;41.20
72770;DHT22;60893;50.848;12.072;2022-07-29T08:27:15;24.40;40.80
72770;DHT22;60893;50.848;12.072;2022-07-29T08:43:06;25.00;40.40
72770;DHT22;60893;50.848;12.072;2022-07-29T08:58:33;25.50;39.50
72770;DHT22;60893;50.848;12.072;2022-07-29T09:14:05;26.40;39.10
72770;DHT22;60893;50.848;12.072;2022-07-29T09:29:30;27.50;37.50
72770;DHT22;60893;50.848;12.072;2022-07-29T09:45:00;28.30;36.10
72770;DHT22;60893;50.848;12.072;2022-07-29T10:00:41;28.80;35.10
72770;DHT22;60893;50.848;12.072;2022-07-29T10:16:08;29.10;34.00
72770;DHT22;60893;50.848;12.072;2022-07-29T10:31:43;29.30;33.70
72770;DHT22;60893;50.848;12.072;2022-07-29T10:47:19;29.50;33.10
72770;DHT22;60893;50.848;12.072;2022-07-29T11:02:46;29.90;33.20
72770;DHT22;60893;50.848;12.072;2022-07-29T11:18:18;30.30;33.00
72770;DHT22;60893;50.848;12.072;2022-07-29T11:33:47;30.70;32.70
72770;DHT22;60893;50.848;12.072;2022-07-29T11:49:21;31.20;32.40
72770;DHT22;60893;50.848;12.072;2022-07-29T12:05:08;32.00;31.30
72770;DHT22;60893;50.848;12.072;2022-07-29T12:20:36;32.20;30.90
72770;DHT22;60893;50.848;12.072;2022-07-29T12:36:05;33.00;30.30
72770;DHT22;60893;50.848;12.072;2022-07-29T12:51:40;34.60;28.90
72770;DHT22;60893;50.848;12.072;2022-07-29T13:07:07;34.40;28.20
72770;DHT22;60893;50.848;12.072;2022-07-29T13:22:40;33.20;29.00
72770;DHT22;60893;50.848;12.072;2022-07-29T13:38:06;32.30;29.80
72770;DHT22;60893;50.848;12.072;2022-07-29T13:53:32;31.20;33.90
72770;DHT22;60893;50.848;12.072;2022-07-29T14:08:58;29.00;41.40
72770;DHT22;60893;50.848;12.072;2022-07-29T14:24:23;26.90;47.10
72770;DHT22;60893;50.848;12.072;2022-07-29T14:39:49;26.00;49.80
72770;DHT22;60893;50.848;12.072;2022-07-29T14:55:15;25.40;50.90
72770;DHT22;60893;50.848;12.072;2022-07-29T15:10:43;25.00;51.30
72770;DHT22;60893;50.848;12.072;2022-07-29T15:25:49;25.90;49.90
72770;DHT22;60893;50.848;12.072;2022-07-29T15:40:54;28.90;48.70
72770;DHT22;60893;50.848;12.072;2022-07-29T15:56:00;31.60;42.90
72770;DHT22;60893;50.848;12.072;2022-07-29T16:11:06;31.80;41.40
72770;DHT22;60893;50.848;12.072;2022-07-29T16:26:12;32.30;40.10
72770;DHT22;60893;50.848;12.072;2022-07-29T16:41:18;32.50;38.80
72770;DHT22;60893;50.848;12.072;2022-07-29T16:56:24;31.50;39.70
72770;DHT22;60893;50.848;12.072;2022-07-29T17:11:30;30.30;40.90
72770;DHT22;60893;50.848;12.072;2022-07-29T17:26:55;29.40;42.80
72770;DHT22;60893;50.848;12.072;2022-07-29T17:42:02;28.60;45.20
72770;DHT22;60893;50.848;12.072;2022-07-29T17:57:08;28.20;46.90
72770;DHT22;60893;50.848;12.072;2022-07-29T18:12:13;27.50;47.60
72770;DHT22;60893;50.848;12.072;2022-07-29T18:27:19;27.00;48.60
72770;DHT22;60893;50.848;12.072;2022-07-29T18:42:25;26.90;49.50
72770;DHT22;60893;50.848;12.072;2022-07-29T18:57:31;26.60;50.80
